createdAt,value
2019-01-20T00:00:16.883Z,209.33
2019-01-20T00:02:44.317Z,214.30
2019-01-20T00:05:13.047Z,240.70
2019-01-20T00:07:40.552Z,244.57
2019-01-20T00:10:09.107Z,255.57
2019-01-20T00:12:36.535Z,266.53
2019-01-20T00:15:05.763Z,300.17
2019-01-20T00:17:33.243Z,316.47
2019-01-20T00:20:00.805Z,310.80
2019-01-20T00:22:28.283Z,294.53
2019-01-20T00:24:55.795Z,288.20
2019-01-20T00:27:23.279Z,304.23
2019-01-20T00:29:50.826Z,313.07
2019-01-20T00:32:18.269Z,291.03
2019-01-20T00:34:45.767Z,289.63
2019-01-20T00:37:13.128Z,279.77
2019-01-20T00:39:40.641Z,314.53
2019-01-20T00:42:08.152Z,298.03
2019-01-20T00:44:35.694Z,317.37
2019-01-20T00:47:03.173Z,317.80
2019-01-20T00:49:30.793Z,325.40
2019-01-20T00:51:58.309Z,326.90
2019-01-20T00:54:25.876Z,332.17
2019-01-20T00:56:53.238Z,345.93
2019-01-20T00:59:20.650Z,330.53
2019-01-20T01:01:48.211Z,321.00
2019-01-20T01:04:15.628Z,341.03
2019-01-20T01:06:43.172Z,355.73
2019-01-20T01:09:10.680Z,331.10
2019-01-20T01:11:38.250Z,334.13
2019-01-20T01:14:05.728Z,333.77
2019-01-20T01:16:33.244Z,338.07
2019-01-20T01:19:00.689Z,316.40
2019-01-20T01:21:28.187Z,329.93
2019-01-20T01:23:55.709Z,317.00
2019-01-20T01:26:24.803Z,322.07
2019-01-20T01:28:56.704Z,341.73
2019-01-20T01:31:24.216Z,302.00
2019-01-20T01:33:53.324Z,305.40
2019-01-20T01:36:22.416Z,293.23
2019-01-20T01:38:51.879Z,273.20
2019-01-20T01:41:19.796Z,284.63
2019-01-20T01:43:47.287Z,268.87
2019-01-20T01:46:14.704Z,277.40
2019-01-20T01:48:42.311Z,272.70
2019-01-20T01:51:12.252Z,271.57
2019-01-20T01:53:39.788Z,266.07
2019-01-20T01:56:09.728Z,269.87
2019-01-20T01:58:37.349Z,274.23
2019-01-20T02:01:04.808Z,273.77
2019-01-20T02:03:37.213Z,300.67
2019-01-20T02:06:04.724Z,281.50
2019-01-20T02:08:32.195Z,282.63
2019-01-20T02:10:59.932Z,297.37
2019-01-20T02:13:27.406Z,296.00
2019-01-20T02:15:55.127Z,287.10
2019-01-20T02:18:22.600Z,288.47
2019-01-20T02:20:50.143Z,263.93
2019-01-20T02:23:17.569Z,299.67
2019-01-20T02:25:45.019Z,283.67
2019-01-20T02:28:12.555Z,272.47
2019-01-20T02:30:39.989Z,263.67
2019-01-20T02:33:07.501Z,280.80
2019-01-20T02:35:35.150Z,287.30
2019-01-20T02:38:02.520Z,298.90
2019-01-20T02:40:30.006Z,290.47
2019-01-20T02:42:57.462Z,286.63
2019-01-20T02:45:25.469Z,305.73
2019-01-20T02:47:52.820Z,302.03
2019-01-20T02:50:20.289Z,297.30
2019-01-20T02:52:47.766Z,298.77
2019-01-20T02:55:16.806Z,284.13
2019-01-20T02:57:44.320Z,309.13
2019-01-20T03:00:13.448Z,278.47
2019-01-20T03:02:41.012Z,275.23
2019-01-20T03:05:10.054Z,283.90
2019-01-20T03:07:37.695Z,273.57
2019-01-20T03:10:08.340Z,275.80
2019-01-20T03:12:36.362Z,246.60
2019-01-20T03:15:07.076Z,253.00
2019-01-20T03:17:34.489Z,239.40
2019-01-20T03:20:02.040Z,251.23
2019-01-20T03:22:29.550Z,254.03
2019-01-20T03:24:57.001Z,236.77
2019-01-20T03:27:24.484Z,231.90
2019-01-20T03:29:51.887Z,241.50
2019-01-20T03:32:19.385Z,238.07
2019-01-20T03:34:48.390Z,236.87
2019-01-20T03:37:17.558Z,229.87
2019-01-20T03:39:45.532Z,248.73
2019-01-20T03:42:13.099Z,256.03
2019-01-20T03:44:40.535Z,267.93
2019-01-20T03:47:08.062Z,274.77
2019-01-20T03:49:35.530Z,275.63
2019-01-20T03:52:05.592Z,266.13
2019-01-20T03:54:34.530Z,271.73
2019-01-20T03:57:02.245Z,275.97
2019-01-20T03:59:29.717Z,278.50
2019-01-20T04:01:57.311Z,267.37
2019-01-20T04:04:24.819Z,271.17
2019-01-20T04:06:52.619Z,276.03
2019-01-20T04:09:20.023Z,278.03
2019-01-20T04:11:47.449Z,269.57
2019-01-20T04:14:14.941Z,281.27
2019-01-20T04:16:42.454Z,270.03
2019-01-20T04:19:10.880Z,262.87
2019-01-20T04:21:38.387Z,263.53
2019-01-20T04:24:05.823Z,266.43
2019-01-20T04:26:33.308Z,269.33
2019-01-20T04:29:00.746Z,267.80
2019-01-20T04:31:28.487Z,277.50
2019-01-20T04:33:55.985Z,282.07
2019-01-20T04:36:23.441Z,277.37
2019-01-20T04:38:51.081Z,288.53
2019-01-20T04:41:18.622Z,282.23
2019-01-20T04:43:46.125Z,298.20
2019-01-20T04:46:13.660Z,293.77
2019-01-20T04:48:41.188Z,304.00
2019-01-20T04:51:08.797Z,311.30
2019-01-20T04:53:36.822Z,300.00
2019-01-20T04:56:07.337Z,320.87
2019-01-20T04:58:36.495Z,303.83
2019-01-20T05:01:04.031Z,316.43
2019-01-20T05:03:31.612Z,294.17
2019-01-20T05:05:59.239Z,295.40
2019-01-20T05:08:26.737Z,304.10
2019-01-20T05:10:54.215Z,302.00
2019-01-20T05:13:21.688Z,284.80
2019-01-20T05:15:49.203Z,296.80
2019-01-20T05:18:17.083Z,282.13
2019-01-20T05:20:46.079Z,269.57
2019-01-20T05:23:13.697Z,311.50
2019-01-20T05:25:41.586Z,301.67
2019-01-20T05:28:09.019Z,305.60
2019-01-20T05:30:36.453Z,298.13
2019-01-20T05:33:03.931Z,275.90
2019-01-20T05:35:31.431Z,295.43
2019-01-20T05:37:58.874Z,306.90
2019-01-20T05:40:28.020Z,288.63
2019-01-20T05:42:55.479Z,281.03
2019-01-20T05:45:23.884Z,309.50
2019-01-20T05:47:51.360Z,312.20
2019-01-20T05:50:18.901Z,309.83
2019-01-20T05:52:47.555Z,328.13
2019-01-20T05:55:15.254Z,317.30
2019-01-20T05:57:42.614Z,310.90
2019-01-20T06:00:11.731Z,334.37
2019-01-20T06:02:39.179Z,305.53
2019-01-20T06:05:06.866Z,315.30
2019-01-20T06:07:34.357Z,316.90
2019-01-20T06:10:02.395Z,307.13
2019-01-20T06:12:31.577Z,287.87
2019-01-20T06:15:02.715Z,275.93
2019-01-20T06:17:30.551Z,274.40
2019-01-20T06:19:58.533Z,260.20
2019-01-20T06:22:26.059Z,264.73
2019-01-20T06:24:56.988Z,245.90
2019-01-20T06:27:24.594Z,264.93
2019-01-20T06:29:52.053Z,265.07
2019-01-20T06:32:20.051Z,253.53
2019-01-20T06:34:48.905Z,257.50
2019-01-20T06:37:16.442Z,251.70
2019-01-20T06:39:44.023Z,255.03
2019-01-20T06:42:11.480Z,231.37
2019-01-20T06:44:38.956Z,252.40
2019-01-20T06:47:07.190Z,240.33
2019-01-20T06:49:35.441Z,240.60
2019-01-20T06:52:04.033Z,249.50
2019-01-20T06:54:38.824Z,265.57
2019-01-20T06:57:06.209Z,261.63
2019-01-20T06:59:34.347Z,307.77
2019-01-20T07:02:01.760Z,331.97
2019-01-20T07:04:29.262Z,286.67
2019-01-20T07:06:56.606Z,308.33
2019-01-20T07:09:25.214Z,309.57
2019-01-20T07:11:52.646Z,304.17
2019-01-20T07:14:20.312Z,280.73
2019-01-20T07:16:47.696Z,279.43
2019-01-20T07:19:15.317Z,277.97
2019-01-20T07:21:42.916Z,267.13
2019-01-20T07:24:11.738Z,244.70
2019-01-20T07:26:39.343Z,277.40
2019-01-20T07:29:06.884Z,266.13
2019-01-20T07:31:34.306Z,266.53
2019-01-20T07:34:01.790Z,265.83
2019-01-20T07:36:30.846Z,240.23
2019-01-20T07:38:59.891Z,246.77
2019-01-20T07:41:27.543Z,260.27
2019-01-20T07:44:00.156Z,245.73
2019-01-20T07:46:27.689Z,264.30
2019-01-20T07:48:55.212Z,256.00
2019-01-20T07:51:22.828Z,254.13
2019-01-20T07:53:50.390Z,244.60
2019-01-20T07:56:39.114Z,243.87
2019-01-20T07:59:07.307Z,241.07
2019-01-20T08:01:34.914Z,245.43
2019-01-20T08:04:02.378Z,232.27
2019-01-20T08:06:31.165Z,215.83
2019-01-20T08:08:58.597Z,215.60
2019-01-20T08:11:27.647Z,221.13
2019-01-20T08:13:57.878Z,215.37
2019-01-20T08:16:25.488Z,212.07
2019-01-20T08:18:53.022Z,214.50
2019-01-20T08:21:20.681Z,218.37
2019-01-20T08:23:48.150Z,205.53
2019-01-20T08:26:17.536Z,214.03
2019-01-20T08:28:47.186Z,212.30
2019-01-20T08:31:15.542Z,230.10
2019-01-20T08:33:50.698Z,216.30
2019-01-20T08:38:48.056Z,221.00
2019-01-20T08:41:17.327Z,230.70
2019-01-20T08:43:46.698Z,225.90
2019-01-20T08:46:18.661Z,228.57
2019-01-20T08:48:48.834Z,220.70
2019-01-20T08:51:19.518Z,220.90
2019-01-20T08:53:47.367Z,212.60
2019-01-20T08:56:14.946Z,212.83
2019-01-20T08:58:42.611Z,211.27
2019-01-20T09:01:10.104Z,211.47
2019-01-20T09:03:38.748Z,209.87
2019-01-20T09:06:06.288Z,191.30
2019-01-20T09:08:35.971Z,188.13
2019-01-20T09:11:05.097Z,192.57
2019-01-20T09:13:39.795Z,182.83
2019-01-20T09:16:55.669Z,180.47
2019-01-20T09:22:21.937Z,203.73
2019-01-20T09:27:47.286Z,222.83
2019-01-20T09:30:22.148Z,238.10
2019-01-20T09:32:51.221Z,230.63
2019-01-20T09:35:18.964Z,237.67
2019-01-20T09:37:46.561Z,223.73
2019-01-20T09:40:18.004Z,217.00
2019-01-20T09:42:45.490Z,228.90
2019-01-20T09:45:17.750Z,229.53
2019-01-20T09:47:46.863Z,221.13
2019-01-20T09:50:19.068Z,226.37
2019-01-20T09:52:55.683Z,229.13
2019-01-20T09:57:59.147Z,226.90
2019-01-20T10:16:30.165Z,240.80
2019-01-20T10:18:59.249Z,220.33
2019-01-20T10:21:26.824Z,256.97
2019-01-20T10:23:58.023Z,242.43
2019-01-20T10:26:26.924Z,240.50
2019-01-20T10:29:26.624Z,262.30
2019-01-20T10:32:05.267Z,267.10
2019-01-20T10:34:33.472Z,269.93
2019-01-20T10:37:01.767Z,267.70
2019-01-20T10:39:30.925Z,260.43
2019-01-20T10:42:00.221Z,221.90
2019-01-20T10:44:36.735Z,224.80
2019-01-20T10:47:05.910Z,215.77
2019-01-20T10:52:37.155Z,215.00
2019-01-20T10:55:05.451Z,251.43
2019-01-20T10:57:36.833Z,236.00
2019-01-20T11:00:24.280Z,209.43
2019-01-20T11:02:53.165Z,198.00
2019-01-20T11:05:25.056Z,195.50
2019-01-20T11:20:22.985Z,186.87
2019-01-20T11:22:56.610Z,193.63
2019-01-20T11:31:03.878Z,205.37
2019-01-20T11:33:32.999Z,204.43
2019-01-20T11:36:09.506Z,182.67
2019-01-20T11:41:44.589Z,187.77
2019-01-20T11:44:45.557Z,182.13
2019-01-20T11:47:17.971Z,179.77
2019-01-20T11:50:13.242Z,178.50
2019-01-20T11:52:31.297Z,163.30
2019-01-20T11:55:07.242Z,169.23
2019-01-20T11:57:35.637Z,238.07
2019-01-20T12:00:07.534Z,292.67
2019-01-20T12:02:36.267Z,243.27
2019-01-20T12:05:10.315Z,170.20
2019-01-20T12:07:38.751Z,170.13
2019-01-20T12:10:07.412Z,168.20
2019-01-20T12:12:37.705Z,186.60
2019-01-20T12:15:23.815Z,147.10
2019-01-20T12:17:51.667Z,123.90
2019-01-20T12:23:38.630Z,121.63
2019-01-20T12:26:22.413Z,131.27
2019-01-20T12:31:52.410Z,179.87
2019-01-20T12:34:33.735Z,138.10
2019-01-20T12:37:01.293Z,131.60
2019-01-20T12:39:29.828Z,119.20
2019-01-20T12:42:01.120Z,129.47
2019-01-20T12:44:31.531Z,111.63
2019-01-20T12:46:59.209Z,104.10
2019-01-20T12:49:27.535Z,94.23
2019-01-20T12:52:01.384Z,94.57
2019-01-20T12:54:37.057Z,94.50
2019-01-20T12:57:04.596Z,85.80
2019-01-20T12:59:32.477Z,97.47
2019-01-20T13:02:01.047Z,87.90
2019-01-20T13:04:32.972Z,97.23
2019-01-20T13:07:01.389Z,98.43
2019-01-20T13:09:29.052Z,90.07
2019-01-20T13:11:57.201Z,74.23
2019-01-20T13:14:25.125Z,84.83
2019-01-20T13:16:53.764Z,84.47
2019-01-20T13:19:21.356Z,83.50
2019-01-20T13:21:48.768Z,99.13
2019-01-20T13:24:16.297Z,104.37
2019-01-20T13:26:43.913Z,101.90
2019-01-20T13:29:18.742Z,102.83
2019-01-20T13:31:46.304Z,101.57
2019-01-20T13:34:13.812Z,106.47
2019-01-20T13:36:41.220Z,111.70
2019-01-20T13:39:09.774Z,112.40
2019-01-20T13:41:37.226Z,126.43
2019-01-20T13:44:04.738Z,134.90
2019-01-20T13:46:33.150Z,146.00
2019-01-20T13:49:01.292Z,142.03
2019-01-20T13:51:31.698Z,133.67
2019-01-20T13:54:00.384Z,147.43
2019-01-20T13:56:29.248Z,135.50
2019-01-20T13:58:58.952Z,147.33
2019-01-20T14:01:26.309Z,139.03
2019-01-20T14:03:53.663Z,149.60
2019-01-20T14:06:21.258Z,159.47
2019-01-20T14:08:51.568Z,154.27
2019-01-20T14:11:27.952Z,217.10
2019-01-20T14:13:55.472Z,269.23
2019-01-20T14:16:26.557Z,308.67
2019-01-20T14:18:54.026Z,339.23
2019-01-20T14:21:23.174Z,355.10
2019-01-20T14:23:50.716Z,356.23
2019-01-20T14:26:19.150Z,367.80
2019-01-20T14:28:46.771Z,377.27
2019-01-20T14:31:14.212Z,391.07
2019-01-20T14:33:41.690Z,386.00
2019-01-20T14:36:09.558Z,379.77
2019-01-20T14:38:39.344Z,394.23
2019-01-20T14:41:06.828Z,412.73
2019-01-20T14:43:34.286Z,396.23
2019-01-20T14:46:03.008Z,397.03
2019-01-20T14:48:32.183Z,415.33
2019-01-20T14:50:59.916Z,414.50
2019-01-20T14:53:27.360Z,406.80
2019-01-20T14:55:57.492Z,407.57
2019-01-20T14:58:26.580Z,403.43
2019-01-20T15:00:53.964Z,404.93
2019-01-20T15:03:31.512Z,414.50
2019-01-20T15:11:45.242Z,492.27
2019-01-20T15:14:16.057Z,513.23
2019-01-20T15:28:16.766Z,444.40
2019-01-20T15:30:45.822Z,477.93
2019-01-20T15:33:25.531Z,483.77
2019-01-20T15:36:07.386Z,472.90
2019-01-20T15:38:34.928Z,508.43
2019-01-20T15:41:02.571Z,474.53
2019-01-20T15:43:30.106Z,452.20
2019-01-20T15:45:59.063Z,442.30
2019-01-20T15:48:27.173Z,464.67
2019-01-20T15:50:55.422Z,462.20
2019-01-20T15:53:23.494Z,410.53
2019-01-20T15:55:51.164Z,435.20
2019-01-20T15:58:26.718Z,402.10
2019-01-20T16:00:54.414Z,370.13
2019-01-20T16:03:29.099Z,335.67
2019-01-20T16:06:02.712Z,383.60
2019-01-20T16:08:30.073Z,389.10
2019-01-20T16:10:57.614Z,401.43
2019-01-20T16:13:26.769Z,381.03
2019-01-20T16:15:54.350Z,389.13
2019-01-20T16:18:21.808Z,343.63
2019-01-20T16:20:49.265Z,327.87
2019-01-20T16:23:16.927Z,346.23
2019-01-20T16:25:44.779Z,346.03
2019-01-20T16:28:14.185Z,345.43
2019-01-20T16:30:41.509Z,360.97
2019-01-20T16:33:08.935Z,365.20
2019-01-20T16:35:36.463Z,406.97
2019-01-20T16:38:04.017Z,427.83
2019-01-20T16:40:31.492Z,492.77
2019-01-20T16:42:59.005Z,464.10
2019-01-20T16:45:32.850Z,465.17
2019-01-20T16:47:56.994Z,458.03
2019-01-20T16:50:25.036Z,458.13
2019-01-20T16:52:55.173Z,488.03
2019-01-20T16:55:22.973Z,567.30
2019-01-20T16:57:51.828Z,548.63
2019-01-20T17:00:21.066Z,577.23
2019-01-20T17:02:48.533Z,795.33
2019-01-20T17:05:16.142Z,820.90
2019-01-20T17:07:43.683Z,934.93
2019-01-20T17:10:12.937Z,1424.00
2019-01-20T17:12:40.610Z,512.83
2019-01-20T17:15:10.804Z,375.80
2019-01-20T17:17:38.380Z,467.13
2019-01-20T17:20:08.738Z,597.83
2019-01-20T17:22:36.351Z,455.57
2019-01-20T17:25:05.677Z,510.67
2019-01-20T17:27:33.227Z,589.97
2019-01-20T17:30:00.822Z,443.17
2019-01-20T17:32:33.154Z,397.87
2019-01-20T17:35:00.807Z,344.67
2019-01-20T17:37:28.475Z,397.47
2019-01-20T17:39:56.000Z,416.43
2019-01-20T17:42:23.501Z,374.43
2019-01-20T17:44:51.014Z,346.73
2019-01-20T17:47:19.832Z,375.87
2019-01-20T17:49:47.332Z,411.73
2019-01-20T17:52:14.922Z,403.00
2019-01-20T17:54:42.442Z,440.77
2019-01-20T17:57:09.900Z,439.50
2019-01-20T17:59:37.328Z,442.33
2019-01-20T18:02:04.885Z,492.40
2019-01-20T18:04:32.442Z,502.43
2019-01-20T18:06:59.904Z,483.10
2019-01-20T18:09:29.210Z,505.30
2019-01-20T18:11:56.762Z,479.90
2019-01-20T18:14:26.284Z,466.03
2019-01-20T18:16:58.348Z,466.40
2019-01-20T18:19:25.824Z,479.93
2019-01-20T18:21:53.363Z,464.47
2019-01-20T18:24:20.848Z,461.80
2019-01-20T18:26:48.487Z,381.30
2019-01-20T18:29:16.018Z,410.77
2019-01-20T18:31:43.572Z,462.27
2019-01-20T18:34:11.220Z,507.97
2019-01-20T18:36:38.824Z,649.20
2019-01-20T18:39:06.723Z,670.17
2019-01-20T18:41:35.629Z,660.30
2019-01-20T18:44:03.275Z,629.97
2019-01-20T18:46:31.158Z,644.20
2019-01-20T18:49:00.315Z,626.37
2019-01-20T18:51:27.900Z,655.20
2019-01-20T18:53:55.458Z,597.87
2019-01-20T18:56:23.066Z,633.93
2019-01-20T18:58:52.363Z,618.53
2019-01-20T19:01:19.792Z,613.23
2019-01-20T19:03:47.370Z,620.93
2019-01-20T19:06:14.878Z,500.17
2019-01-20T19:08:42.420Z,563.97
2019-01-20T19:11:09.956Z,572.20
2019-01-20T19:13:39.120Z,564.47
2019-01-20T19:16:09.772Z,579.27
2019-01-20T19:18:37.323Z,583.07
2019-01-20T19:21:04.906Z,574.77
2019-01-20T19:23:34.902Z,591.73
2019-01-20T19:26:04.256Z,580.07
2019-01-20T19:28:31.776Z,591.17
2019-01-20T19:30:59.533Z,592.90
2019-01-20T19:33:27.180Z,576.00
2019-01-20T19:35:57.625Z,576.80
2019-01-20T19:38:26.479Z,555.57
2019-01-20T19:40:53.933Z,531.70
2019-01-20T19:43:23.086Z,520.17
2019-01-20T19:45:50.642Z,522.30
2019-01-20T19:48:20.167Z,500.70
2019-01-20T19:50:50.136Z,513.57
2019-01-20T19:53:18.270Z,509.57
2019-01-20T19:55:48.998Z,498.30
2019-01-20T19:58:16.456Z,500.70
2019-01-20T20:00:44.017Z,464.00
2019-01-20T20:03:11.666Z,464.27
2019-01-20T20:05:40.308Z,412.67
2019-01-20T20:08:07.826Z,385.63
2019-01-20T20:10:35.350Z,386.47
2019-01-20T20:13:02.890Z,390.90
2019-01-20T20:15:30.404Z,386.60
2019-01-20T20:17:57.760Z,402.07
2019-01-20T20:20:25.976Z,385.57
2019-01-20T20:22:53.670Z,377.87
2019-01-20T20:25:22.156Z,378.53
2019-01-20T20:27:49.822Z,402.17
2019-01-20T20:30:22.260Z,406.03
2019-01-20T20:32:49.866Z,407.33
2019-01-20T20:35:18.728Z,405.47
2019-01-20T20:37:46.233Z,394.83
2019-01-20T20:40:14.917Z,393.47
2019-01-20T20:42:44.076Z,406.87
2019-01-20T20:45:13.158Z,399.23
2019-01-20T20:47:40.690Z,402.17
2019-01-20T20:50:09.767Z,391.47
2019-01-20T20:52:37.341Z,385.33
2019-01-20T20:55:06.925Z,397.60
2019-01-20T20:57:34.572Z,412.07
2019-01-20T21:00:02.222Z,459.43
2019-01-20T21:02:42.699Z,452.17
2019-01-20T21:05:15.203Z,491.93
2019-01-20T21:07:51.897Z,460.23
2019-01-20T21:10:19.440Z,501.87
2019-01-20T21:12:55.825Z,517.37
2019-01-20T21:15:26.636Z,519.57
2019-01-20T21:17:57.372Z,497.70
2019-01-20T21:20:24.873Z,507.80
2019-01-20T21:22:53.888Z,528.67
2019-01-20T21:25:21.427Z,527.03
2019-01-20T21:27:48.991Z,507.83
2019-01-20T21:30:18.080Z,545.30
2019-01-20T21:32:48.820Z,554.40
2019-01-20T21:35:16.330Z,557.60
2019-01-20T21:37:43.936Z,622.57
2019-01-20T21:40:15.545Z,617.47
2019-01-20T21:42:43.073Z,595.60
2019-01-20T21:45:11.281Z,636.33
2019-01-20T21:47:38.901Z,747.53
2019-01-20T21:50:19.820Z,761.93
2019-01-20T21:52:48.148Z,753.70
2019-01-20T21:55:15.594Z,761.37
2019-01-20T21:57:43.273Z,778.93
2019-01-20T22:00:13.371Z,768.37
2019-01-20T22:02:42.469Z,781.10
2019-01-20T22:05:10.489Z,759.50
2019-01-20T22:07:39.521Z,711.00
2019-01-20T22:10:08.617Z,704.13
2019-01-20T22:12:36.143Z,672.23
2019-01-20T22:15:04.563Z,667.10
2019-01-20T22:17:32.101Z,605.13
2019-01-20T22:20:00.263Z,617.77
2019-01-20T22:22:29.187Z,699.83
2019-01-20T22:24:56.729Z,656.03
2019-01-20T22:27:24.284Z,626.13
2019-01-20T22:29:51.745Z,655.97
2019-01-20T22:32:20.123Z,651.27
2019-01-20T22:34:47.683Z,665.20
2019-01-20T22:37:15.135Z,670.43
2019-01-20T22:39:44.556Z,653.40
2019-01-20T22:42:11.996Z,669.97
2019-01-20T22:44:39.769Z,652.10
2019-01-20T22:47:07.230Z,668.17
2019-01-20T22:49:35.029Z,654.23
2019-01-20T22:52:05.014Z,652.53
2019-01-20T22:54:32.532Z,684.10
2019-01-20T22:57:00.016Z,651.37
2019-01-20T22:59:27.598Z,681.47
2019-01-20T23:01:57.564Z,654.97
2019-01-20T23:04:25.060Z,653.63
2019-01-20T23:06:52.671Z,660.00
2019-01-20T23:09:20.183Z,641.70
2019-01-20T23:11:47.629Z,635.77
2019-01-20T23:14:15.473Z,643.87
2019-01-20T23:16:43.027Z,605.40
2019-01-20T23:19:10.503Z,600.90
2019-01-20T23:21:38.062Z,607.73
2019-01-20T23:24:05.927Z,583.33
2019-01-20T23:26:33.675Z,602.83
2019-01-20T23:29:01.124Z,594.27
2019-01-20T23:31:28.592Z,593.70
2019-01-20T23:33:57.111Z,591.10
2019-01-20T23:36:24.619Z,582.97
2019-01-20T23:38:53.713Z,590.63
2019-01-20T23:41:21.327Z,566.13
2019-01-20T23:43:48.871Z,576.73
2019-01-20T23:46:16.370Z,564.43
2019-01-20T23:48:43.947Z,577.50
2019-01-20T23:51:11.378Z,582.73
2019-01-20T23:53:39.011Z,572.50
2019-01-20T23:56:06.693Z,609.57
2019-01-20T23:58:34.197Z,610.60
